createdAt,value
2022-09-22T00:01:37.233Z,6.87
2022-09-22T00:04:08.303Z,8.77
2022-09-22T00:06:40.122Z,8.57
2022-09-22T00:09:11.152Z,7.73
2022-09-22T00:11:42.372Z,9.50
2022-09-22T00:14:12.792Z,11.07
2022-09-22T00:16:44.876Z,9.67
2022-09-22T00:19:15.340Z,9.47
2022-09-22T00:21:44.976Z,7.00
2022-09-22T00:24:13.427Z,12.37
2022-09-22T00:26:42.017Z,7.17
2022-09-22T00:29:11.460Z,9.83
2022-09-22T00:31:41.691Z,6.63
2022-09-22T00:34:13.996Z,11.93
2022-09-22T00:36:42.195Z,9.90
2022-09-22T00:39:12.412Z,7.77
2022-09-22T00:41:42.788Z,9.17
2022-09-22T00:44:38.427Z,9.07
2022-09-22T00:47:15.291Z,9.10
2022-09-22T00:49:47.898Z,7.90
2022-09-22T00:52:20.491Z,9.07
2022-09-22T00:54:52.577Z,7.83
2022-09-22T00:57:23.802Z,8.63
2022-09-22T00:59:53.473Z,8.97
2022-09-22T01:02:22.473Z,7.43
2022-09-22T01:04:52.837Z,7.77
2022-09-22T01:07:23.007Z,10.10
2022-09-22T01:09:53.339Z,7.93
2022-09-22T01:12:21.588Z,8.97
2022-09-22T01:15:03.711Z,8.97
2022-09-22T01:17:40.919Z,9.03
2022-09-22T01:20:40.723Z,9.63
2022-09-22T01:23:48.251Z,8.97
2022-09-22T01:26:45.723Z,11.93
2022-09-22T01:29:36.233Z,13.47
2022-09-22T01:32:14.067Z,11.50
2022-09-22T01:34:47.286Z,11.17
2022-09-22T01:37:24.592Z,10.83
2022-09-22T01:39:56.474Z,10.87
2022-09-22T01:42:34.375Z,10.73
2022-09-22T01:45:07.847Z,8.17
2022-09-22T01:47:41.673Z,10.87
2022-09-22T01:50:14.578Z,10.00
2022-09-22T01:52:44.002Z,9.33
2022-09-22T01:55:17.617Z,10.00
2022-09-22T01:57:52.547Z,9.37
2022-09-22T02:00:23.188Z,10.10
2022-09-22T02:02:59.155Z,10.67
2022-09-22T02:05:33.721Z,11.00
2022-09-22T02:08:07.090Z,8.60
2022-09-22T02:10:41.523Z,10.17
2022-09-22T02:13:09.940Z,9.13
2022-09-22T02:15:55.671Z,10.37
2022-09-22T02:18:29.847Z,8.97
2022-09-22T02:20:58.715Z,10.93
2022-09-22T02:23:26.854Z,9.73
2022-09-22T02:25:57.161Z,13.23
2022-09-22T02:28:26.789Z,12.70
2022-09-22T02:31:18.499Z,12.97
2022-09-22T02:33:46.612Z,11.60
2022-09-22T02:36:36.965Z,16.20
2022-09-22T02:39:09.833Z,11.10
2022-09-22T02:41:48.531Z,14.47
2022-09-22T02:44:21.193Z,13.03
2022-09-22T02:46:57.184Z,12.97
2022-09-22T02:49:28.819Z,17.60
2022-09-22T02:51:57.206Z,13.73
2022-09-22T02:54:25.577Z,16.80
2022-09-22T02:56:54.041Z,12.73
2022-09-22T02:59:22.228Z,15.33
2022-09-22T03:01:50.482Z,14.60
2022-09-22T03:04:18.639Z,16.10
2022-09-22T03:06:48.211Z,15.67
2022-09-22T03:09:17.667Z,18.53
2022-09-22T03:11:45.810Z,16.17
2022-09-22T03:14:14.008Z,17.77
2022-09-22T03:16:42.193Z,18.70
2022-09-22T03:19:10.313Z,17.77
2022-09-22T03:21:38.465Z,18.17
2022-09-22T03:24:08.348Z,21.77
2022-09-22T03:26:36.474Z,20.23
2022-09-22T03:29:04.656Z,22.60
2022-09-22T03:31:32.809Z,24.43
2022-09-22T03:34:01.087Z,20.07
2022-09-22T03:36:29.613Z,21.03
2022-09-22T03:38:58.329Z,20.83
2022-09-22T03:41:28.393Z,17.07
2022-09-22T03:43:56.489Z,17.83
2022-09-22T03:46:25.097Z,17.90
2022-09-22T03:48:53.305Z,18.00
2022-09-22T03:51:21.477Z,17.23
2022-09-22T03:53:49.692Z,14.93
2022-09-22T03:56:18.039Z,16.97
2022-09-22T03:58:47.940Z,17.47
2022-09-22T04:01:16.128Z,17.47
2022-09-22T04:03:44.441Z,17.53
2022-09-22T04:06:12.785Z,17.13
2022-09-22T04:08:41.012Z,16.87
2022-09-22T04:11:09.270Z,15.13
2022-09-22T04:13:38.400Z,15.67
2022-09-22T04:16:10.105Z,15.27
2022-09-22T04:18:39.816Z,17.80
2022-09-22T04:21:08.593Z,15.03
2022-09-22T04:23:37.363Z,15.87
2022-09-22T04:26:06.295Z,17.90
2022-09-22T04:28:34.632Z,13.60
2022-09-22T04:31:02.917Z,16.23
2022-09-22T04:33:32.520Z,16.43
2022-09-22T04:36:00.650Z,15.20
2022-09-22T04:38:28.762Z,16.80
2022-09-22T04:40:57.351Z,12.10
2022-09-22T04:43:25.433Z,14.60
2022-09-22T04:45:53.689Z,14.77
2022-09-22T04:48:21.867Z,14.10
2022-09-22T04:50:51.572Z,17.73
2022-09-22T04:53:19.768Z,15.53
2022-09-22T04:55:47.911Z,15.47
2022-09-22T04:58:16.112Z,14.97
2022-09-22T05:00:44.722Z,15.90
2022-09-22T05:03:16.453Z,16.73
2022-09-22T05:05:48.617Z,14.33
2022-09-22T05:08:18.859Z,14.70
2022-09-22T05:10:47.083Z,15.77
2022-09-22T05:13:15.498Z,14.03
2022-09-22T05:15:43.676Z,17.27
2022-09-22T05:18:11.830Z,17.17
2022-09-22T05:20:40.210Z,14.57
2022-09-22T05:23:08.442Z,15.33
2022-09-22T05:25:39.158Z,17.00
2022-09-22T05:28:07.393Z,13.87
2022-09-22T05:30:35.519Z,16.33
2022-09-22T05:33:03.710Z,16.70
2022-09-22T05:35:36.719Z,13.20
2022-09-22T05:38:05.383Z,14.97
2022-09-22T05:40:33.692Z,16.97
2022-09-22T05:43:03.305Z,14.57
2022-09-22T05:45:31.556Z,15.20
2022-09-22T05:47:59.723Z,15.93
2022-09-22T05:50:27.942Z,16.00
2022-09-22T05:53:05.030Z,14.90
2022-09-22T05:55:33.645Z,15.00
2022-09-22T05:58:03.649Z,15.87
2022-09-22T06:00:32.309Z,14.70
2022-09-22T06:03:00.597Z,18.13
2022-09-22T06:05:28.756Z,17.70
2022-09-22T06:08:01.564Z,16.00
2022-09-22T06:10:30.600Z,14.63
2022-09-22T06:13:04.994Z,17.77
2022-09-22T06:15:35.750Z,17.63
2022-09-22T06:18:05.844Z,19.43
2022-09-22T06:20:34.267Z,15.17
2022-09-22T06:23:02.843Z,14.00
2022-09-22T06:25:31.524Z,16.33
2022-09-22T06:28:01.984Z,14.63
2022-09-22T06:30:31.887Z,17.97
2022-09-22T06:33:00.179Z,16.07
2022-09-22T06:35:31.129Z,11.47
2022-09-22T06:38:54.581Z,16.27
2022-09-22T06:41:41.464Z,13.93
2022-09-22T06:44:14.308Z,14.63
2022-09-22T06:46:43.832Z,17.43
2022-09-22T06:49:13.788Z,13.37
2022-09-22T06:51:41.940Z,13.20
2022-09-22T06:54:10.059Z,11.43
2022-09-22T06:56:42.913Z,17.43
2022-09-22T06:59:14.277Z,13.07
2022-09-22T07:01:45.471Z,13.00
2022-09-22T07:04:14.398Z,12.60
2022-09-22T07:06:43.403Z,10.20
2022-09-22T07:09:12.412Z,11.03
2022-09-22T07:11:40.765Z,9.80
2022-09-22T07:14:10.279Z,9.17
2022-09-22T07:16:40.023Z,11.80
2022-09-22T07:19:10.364Z,9.20
2022-09-22T07:21:40.336Z,11.73
2022-09-22T07:24:09.294Z,8.30
2022-09-22T07:26:39.061Z,10.70
2022-09-22T07:29:11.563Z,9.30
2022-09-22T07:31:41.491Z,8.37
2022-09-22T07:34:11.062Z,9.30
2022-09-22T07:36:40.044Z,9.80
2022-09-22T07:39:11.063Z,9.53
2022-09-22T07:41:43.533Z,7.60
2022-09-22T07:44:30.752Z,8.73
2022-09-22T07:46:59.264Z,9.30
2022-09-22T07:49:28.848Z,6.60
2022-09-22T07:51:57.556Z,9.57
2022-09-22T07:54:26.770Z,7.33
2022-09-22T07:56:58.554Z,7.23
2022-09-22T07:59:27.754Z,7.63
2022-09-22T08:01:56.151Z,8.90
2022-09-22T08:04:26.450Z,8.70
2022-09-22T08:06:56.991Z,7.43
2022-09-22T08:09:26.133Z,8.77
2022-09-22T08:11:55.214Z,8.87
2022-09-22T08:14:24.362Z,8.20
2022-09-22T08:16:53.441Z,8.30
2022-09-22T08:19:24.447Z,8.90
2022-09-22T08:21:54.206Z,7.03
2022-09-22T08:24:24.273Z,6.90
2022-09-22T08:26:56.395Z,7.47
2022-09-22T08:29:25.386Z,7.53
2022-09-22T08:31:54.072Z,8.10
2022-09-22T08:34:22.979Z,9.93
2022-09-22T08:36:55.781Z,7.37
2022-09-22T08:39:25.218Z,7.23
2022-09-22T08:42:09.508Z,7.97
2022-09-22T08:44:49.416Z,8.43
2022-09-22T08:47:41.633Z,8.87
2022-09-22T08:50:38.749Z,5.73
2022-09-22T08:53:10.001Z,6.10
2022-09-22T08:55:43.386Z,5.67
2022-09-22T08:58:24.647Z,4.43
2022-09-22T09:01:04.403Z,6.50
2022-09-22T09:03:45.176Z,6.57
2022-09-22T09:06:17.353Z,6.13
2022-09-22T09:09:11.029Z,5.37
2022-09-22T09:11:59.519Z,5.17
2022-09-22T09:14:48.736Z,4.83
2022-09-22T09:17:22.078Z,4.70
2022-09-22T09:19:53.231Z,5.97
2022-09-22T09:22:25.302Z,3.23
2022-09-22T09:27:51.427Z,4.90
2022-09-22T09:30:20.899Z,4.33
2022-09-22T09:32:52.460Z,4.47
2022-09-22T09:35:26.648Z,5.17
2022-09-22T09:37:59.060Z,4.83
2022-09-22T09:40:27.730Z,4.60
2022-09-22T09:43:03.313Z,4.27
2022-09-22T09:45:38.992Z,3.37
2022-09-22T09:48:21.060Z,5.63
2022-09-22T09:50:49.233Z,4.23
2022-09-22T09:53:30.404Z,2.80
2022-09-22T09:55:58.890Z,4.27
2022-09-22T09:58:45.944Z,3.10
2022-09-22T10:01:15.770Z,4.63
2022-09-22T10:03:48.250Z,2.60
2022-09-22T10:06:25.300Z,4.17
2022-09-22T10:08:53.734Z,3.20
2022-09-22T10:11:31.421Z,1.93
2022-09-22T10:14:01.131Z,3.30
2022-09-22T10:16:30.823Z,2.93
2022-09-22T10:19:20.004Z,3.13
2022-09-22T10:21:48.930Z,2.13
2022-09-22T10:24:29.896Z,3.77
2022-09-22T10:26:59.484Z,2.60
2022-09-22T10:29:30.842Z,1.67
2022-09-22T10:32:15.657Z,3.57
2022-09-22T10:37:21.725Z,2.17
2022-09-22T10:39:51.287Z,2.30
2022-09-22T10:42:34.663Z,2.67
2022-09-22T10:45:07.021Z,2.80
2022-09-22T10:47:45.114Z,2.13
2022-09-22T10:50:51.873Z,2.13
2022-09-22T10:53:42.232Z,4.20
2022-09-22T10:56:19.364Z,2.60
2022-09-22T10:59:06.202Z,2.17
2022-09-22T11:01:57.222Z,2.97
2022-09-22T11:04:53.121Z,1.77
2022-09-22T11:07:53.179Z,1.73
2022-09-22T11:10:51.519Z,3.00
2022-09-22T11:13:34.379Z,2.77
2022-09-22T11:16:34.514Z,2.00
2022-09-22T11:19:29.401Z,2.20
2022-09-22T11:22:27.406Z,3.70
2022-09-22T11:25:11.701Z,2.43
2022-09-22T11:27:50.504Z,3.57
2022-09-22T11:30:23.051Z,2.47
2022-09-22T11:33:17.896Z,4.17
2022-09-22T11:35:57.208Z,1.97
2022-09-22T11:38:39.764Z,2.90
2022-09-22T11:41:25.892Z,3.20
2022-09-22T11:44:21.700Z,3.20
2022-09-22T11:47:07.129Z,3.30
2022-09-22T11:49:52.640Z,2.80
2022-09-22T11:52:32.626Z,3.60
2022-09-22T11:55:23.427Z,2.50
2022-09-22T11:57:57.191Z,2.57
2022-09-22T12:00:25.691Z,2.60
2022-09-22T12:03:02.078Z,3.90
2022-09-22T12:05:38.976Z,3.27
2022-09-22T12:08:11.926Z,2.80
2022-09-22T12:10:44.529Z,3.43
2022-09-22T12:13:15.747Z,2.83
2022-09-22T12:15:52.360Z,3.87
2022-09-22T12:18:27.143Z,4.07
2022-09-22T12:21:00.981Z,2.70
2022-09-22T12:23:38.821Z,4.00
2022-09-22T12:26:09.297Z,4.20
2022-09-22T12:28:43.284Z,2.40
2022-09-22T12:31:14.183Z,2.83
2022-09-22T12:33:48.768Z,3.77
2022-09-22T12:36:18.298Z,2.70
2022-09-22T12:38:48.128Z,3.33
2022-09-22T12:41:21.317Z,2.57
2022-09-22T12:43:49.606Z,3.50
2022-09-22T12:46:27.833Z,3.20
2022-09-22T12:48:56.228Z,3.90
2022-09-22T12:51:33.272Z,2.97
2022-09-22T12:54:39.993Z,2.67
2022-09-22T12:57:31.007Z,3.37
2022-09-22T13:00:32.281Z,3.00
2022-09-22T13:03:02.306Z,3.97
2022-09-22T13:05:46.834Z,3.50
2022-09-22T13:08:48.075Z,3.33
2022-09-22T13:11:17.709Z,5.07
2022-09-22T13:13:47.200Z,3.73
2022-09-22T13:16:36.438Z,4.07
2022-09-22T13:19:10.386Z,2.40
2022-09-22T13:21:41.667Z,2.83
2022-09-22T13:24:19.820Z,5.50
2022-09-22T13:26:49.358Z,3.80
2022-09-22T13:29:19.209Z,2.40
2022-09-22T13:31:50.976Z,3.90
2022-09-22T13:34:27.934Z,3.87
2022-09-22T13:37:02.135Z,3.93
2022-09-22T13:39:33.175Z,2.47
2022-09-22T13:42:07.444Z,4.27
2022-09-22T13:44:40.004Z,3.93
2022-09-22T13:47:13.967Z,2.43
2022-09-22T13:49:44.966Z,3.10
2022-09-22T13:52:17.781Z,2.80
2022-09-22T13:54:49.605Z,3.70
2022-09-22T13:57:24.921Z,3.90
2022-09-22T13:59:53.767Z,4.73
2022-09-22T14:02:29.360Z,4.33
2022-09-22T14:05:03.804Z,2.33
2022-09-22T14:07:44.995Z,3.07
2022-09-22T14:10:23.193Z,2.50
2022-09-22T14:12:52.745Z,2.30
2022-09-22T14:15:44.600Z,2.77
2022-09-22T14:18:18.840Z,3.07
2022-09-22T14:20:47.922Z,2.83
2022-09-22T14:23:26.845Z,2.77
2022-09-22T14:25:55.749Z,3.57
2022-09-22T14:28:28.617Z,3.80
2022-09-22T14:30:57.362Z,2.47
2022-09-22T14:33:28.743Z,4.83
2022-09-22T14:36:01.893Z,2.77
2022-09-22T14:38:34.355Z,3.63
2022-09-22T14:41:03.241Z,2.67
2022-09-22T14:43:39.026Z,3.77
2022-09-22T14:46:33.861Z,1.90
2022-09-22T14:49:38.024Z,2.93
2022-09-22T14:52:08.711Z,2.83
2022-09-22T14:54:39.089Z,2.57
2022-09-22T14:57:09.429Z,3.87
2022-09-22T14:59:56.833Z,2.80
2022-09-22T15:02:36.087Z,2.77
2022-09-22T15:05:07.171Z,3.03
2022-09-22T15:07:37.157Z,3.03
2022-09-22T15:10:08.279Z,3.33
2022-09-22T15:12:40.261Z,2.90
2022-09-22T15:15:21.029Z,5.17
2022-09-22T15:18:08.707Z,3.53
2022-09-22T15:20:42.856Z,3.83
2022-09-22T15:23:18.044Z,3.63
2022-09-22T15:25:46.922Z,4.87
2022-09-22T15:28:17.125Z,3.47
2022-09-22T15:30:47.551Z,2.90
2022-09-22T15:33:16.846Z,3.63
2022-09-22T15:35:48.133Z,4.17
2022-09-22T15:38:19.719Z,5.37
2022-09-22T15:40:49.225Z,3.03
2022-09-22T15:43:43.320Z,6.73
2022-09-22T15:46:28.578Z,5.67
2022-09-22T15:49:01.267Z,4.40
2022-09-22T15:51:31.635Z,4.70
2022-09-22T15:53:59.915Z,5.37
2022-09-22T15:56:31.031Z,4.37
2022-09-22T15:59:01.225Z,6.47
2022-09-22T16:01:29.889Z,5.10
2022-09-22T16:04:00.959Z,10.53
2022-09-22T16:06:30.489Z,8.87
2022-09-22T16:08:58.940Z,8.20
2022-09-22T16:11:29.784Z,13.63
2022-09-22T16:14:01.057Z,16.80
2022-09-22T16:16:30.545Z,17.70
2022-09-22T16:18:59.578Z,16.13
2022-09-22T16:21:30.906Z,16.93
2022-09-22T16:24:03.595Z,14.43
2022-09-22T16:26:33.458Z,11.30
2022-09-22T16:29:03.496Z,9.60
2022-09-22T16:31:31.862Z,12.97
2022-09-22T16:34:01.666Z,9.53
2022-09-22T16:36:33.943Z,13.73
2022-09-22T16:39:03.254Z,10.57
2022-09-22T16:41:33.063Z,9.13
2022-09-22T16:44:02.824Z,9.73
2022-09-22T16:46:33.993Z,10.70
2022-09-22T16:49:05.320Z,12.50
2022-09-22T16:51:37.033Z,10.17
2022-09-22T16:54:07.508Z,14.07
2022-09-22T16:56:38.398Z,16.10
2022-09-22T16:59:07.647Z,18.13
2022-09-22T17:01:38.287Z,20.40
2022-09-22T17:04:08.089Z,17.53
2022-09-22T17:06:40.720Z,11.63
2022-09-22T17:09:10.431Z,9.57
2022-09-22T17:11:40.711Z,8.87
2022-09-22T17:14:12.673Z,8.60
2022-09-22T17:16:42.644Z,9.10
2022-09-22T17:19:16.116Z,8.43
2022-09-22T17:21:46.510Z,7.87
2022-09-22T17:24:15.903Z,14.87
2022-09-22T17:26:47.774Z,6.03
2022-09-22T17:29:17.032Z,6.90
2022-09-22T17:31:48.078Z,6.03
2022-09-22T17:34:17.180Z,7.10
2022-09-22T17:36:46.776Z,11.23
2022-09-22T17:39:14.884Z,5.60
2022-09-22T17:41:46.802Z,7.17
2022-09-22T17:44:21.343Z,5.93
2022-09-22T17:47:07.952Z,6.67
2022-09-22T17:49:53.788Z,7.33
2022-09-22T17:52:40.896Z,9.17
2022-09-22T17:55:12.717Z,9.47
2022-09-22T17:57:42.489Z,9.73
2022-09-22T18:00:13.329Z,12.03
2022-09-22T18:02:41.705Z,9.40
2022-09-22T18:05:12.106Z,9.47
2022-09-22T18:07:42.292Z,9.97
2022-09-22T18:10:12.179Z,8.80
2022-09-22T18:12:41.274Z,8.43
2022-09-22T18:15:12.932Z,12.53
2022-09-22T18:17:42.484Z,10.10
2022-09-22T18:20:12.495Z,10.73
2022-09-22T18:22:47.902Z,10.80
2022-09-22T18:25:19.367Z,9.50
2022-09-22T18:27:48.478Z,8.47
2022-09-22T18:30:19.246Z,8.20
2022-09-22T18:32:47.753Z,9.13
2022-09-22T18:35:16.610Z,11.40
2022-09-22T18:37:46.305Z,9.00
2022-09-22T18:40:16.116Z,10.37
2022-09-22T18:42:44.761Z,15.77
2022-09-22T18:45:14.130Z,11.50
2022-09-22T18:47:43.759Z,10.00
2022-09-22T18:50:13.020Z,10.37
2022-09-22T18:52:43.170Z,13.97
2022-09-22T18:55:19.090Z,13.43
2022-09-22T18:57:48.362Z,16.57
2022-09-22T19:00:21.001Z,13.23
2022-09-22T19:02:49.332Z,12.00
2022-09-22T19:05:17.838Z,11.20
2022-09-22T19:07:47.718Z,9.97
2022-09-22T19:10:20.535Z,11.07
2022-09-22T19:12:48.946Z,12.07
2022-09-22T19:15:19.200Z,11.17
2022-09-22T19:17:49.696Z,13.53
2022-09-22T19:20:20.989Z,12.30
2022-09-22T19:22:50.442Z,15.17
2022-09-22T19:25:21.518Z,13.37
2022-09-22T19:27:50.036Z,16.20
2022-09-22T19:30:22.385Z,14.77
2022-09-22T19:32:51.036Z,16.30
2022-09-22T19:35:19.643Z,16.53
2022-09-22T19:37:48.018Z,15.37
2022-09-22T19:40:19.025Z,15.73
2022-09-22T19:42:49.787Z,14.40
2022-09-22T19:45:18.575Z,15.47
2022-09-22T19:47:47.382Z,17.03
2022-09-22T19:50:16.050Z,14.70
2022-09-22T19:52:44.352Z,14.53
2022-09-22T19:55:12.739Z,16.77
2022-09-22T19:57:41.743Z,14.93
2022-09-22T20:00:17.267Z,18.00
2022-09-22T20:02:45.901Z,14.27
2022-09-22T20:05:21.354Z,15.00
2022-09-22T20:07:49.894Z,19.60
2022-09-22T20:10:19.267Z,15.87
2022-09-22T20:12:47.515Z,15.37
2022-09-22T20:15:17.512Z,15.30
2022-09-22T20:17:47.735Z,16.13
2022-09-22T20:20:17.369Z,18.67
2022-09-22T20:22:46.976Z,14.53
2022-09-22T20:25:23.720Z,17.67
2022-09-22T20:27:51.944Z,17.13
2022-09-22T20:30:21.890Z,12.10
2022-09-22T20:32:50.390Z,12.07
2022-09-22T20:35:21.988Z,13.73
2022-09-22T20:37:51.520Z,15.57
2022-09-22T20:40:23.093Z,12.83
2022-09-22T20:42:53.111Z,16.00
2022-09-22T20:45:24.466Z,17.83
2022-09-22T20:47:52.653Z,14.90
2022-09-22T20:50:21.213Z,16.27
2022-09-22T20:52:49.390Z,17.20
2022-09-22T20:55:17.687Z,14.43
2022-09-22T20:57:45.773Z,15.97
2022-09-22T21:00:15.398Z,17.10
2022-09-22T21:02:45.573Z,19.17
2022-09-22T21:05:13.746Z,18.20
2022-09-22T21:07:41.829Z,19.80
2022-09-22T21:10:28.089Z,18.13
2022-09-22T21:12:56.492Z,18.73
2022-09-22T21:15:24.686Z,16.50
2022-09-22T21:17:54.247Z,19.10
2022-09-22T21:20:22.649Z,14.63
2022-09-22T21:22:51.051Z,13.37
2022-09-22T21:25:20.280Z,13.20
2022-09-22T21:27:48.392Z,13.37
2022-09-22T21:30:16.612Z,15.10
2022-09-22T21:32:44.940Z,14.23
2022-09-22T21:35:16.836Z,13.87
2022-09-22T21:37:45.709Z,13.60
2022-09-22T21:40:14.051Z,12.80
2022-09-22T21:42:42.344Z,14.03
2022-09-22T21:45:12.077Z,12.00
2022-09-22T21:47:40.432Z,13.97
2022-09-22T21:50:09.625Z,11.47
2022-09-22T21:52:39.479Z,13.37
2022-09-22T21:55:08.511Z,12.97
2022-09-22T21:57:36.613Z,14.03
2022-09-22T22:00:07.547Z,14.30
2022-09-22T22:02:53.856Z,14.00
2022-09-22T22:05:21.994Z,13.23
2022-09-22T22:07:51.634Z,12.80
2022-09-22T22:10:19.971Z,10.87
2022-09-22T22:12:48.146Z,14.77
2022-09-22T22:15:16.435Z,12.47
2022-09-22T22:17:44.655Z,14.23
2022-09-22T22:20:12.751Z,13.07
2022-09-22T22:22:40.841Z,12.80
2022-09-22T22:25:17.113Z,12.83
2022-09-22T22:27:45.784Z,14.97
2022-09-22T22:30:14.549Z,14.43
2022-09-22T22:32:43.148Z,16.13
2022-09-22T22:35:11.638Z,11.90
2022-09-22T22:37:39.926Z,12.47
2022-09-22T22:40:10.398Z,14.43
2022-09-22T22:42:38.592Z,13.63
2022-09-22T22:45:07.367Z,14.63
2022-09-22T22:47:35.453Z,14.43
2022-09-22T22:50:03.623Z,13.07
2022-09-22T22:52:31.778Z,13.47
2022-09-22T22:54:59.864Z,12.57
2022-09-22T22:57:29.744Z,13.87
2022-09-22T22:59:58.178Z,12.90
2022-09-22T23:02:26.284Z,13.40
2022-09-22T23:04:54.513Z,14.83
2022-09-22T23:07:22.648Z,12.47
2022-09-22T23:10:06.107Z,11.00
2022-09-22T23:12:37.239Z,15.23
2022-09-22T23:15:06.097Z,15.00
2022-09-22T23:17:34.287Z,12.27
2022-09-22T23:20:03.140Z,14.60
2022-09-22T23:22:31.625Z,10.93
2022-09-22T23:25:00.081Z,12.80
2022-09-22T23:27:28.430Z,12.53
2022-09-22T23:29:58.281Z,13.37
2022-09-22T23:32:26.521Z,11.07
2022-09-22T23:34:54.682Z,12.40
2022-09-22T23:37:25.019Z,12.13
2022-09-22T23:39:53.692Z,11.70
2022-09-22T23:42:22.152Z,12.37
2022-09-22T23:44:50.298Z,11.07
2022-09-22T23:47:19.804Z,14.97
2022-09-22T23:49:47.976Z,10.63
2022-09-22T23:52:16.046Z,9.60
2022-09-22T23:54:44.690Z,10.57
2022-09-22T23:57:12.809Z,11.10
2022-09-22T23:59:41.000Z,12.40
